createdAt,value
2024-01-14T00:03:28.622Z,100065.97
2024-01-14T00:04:01.239Z,100050.53
2024-01-14T00:06:54.924Z,100033.75
2024-01-14T00:09:45.970Z,100052.06
2024-01-14T00:12:47.026Z,100067.31
2024-01-14T00:15:35.469Z,100072.38
2024-01-14T00:18:23.772Z,100056.41
2024-01-14T00:21:18.020Z,100053.59
2024-01-14T00:24:07.306Z,100039.63
2024-01-14T00:27:05.753Z,100034.69
2024-01-14T00:29:59.580Z,100030.84
2024-01-14T00:32:51.270Z,100025.63
2024-01-14T00:35:44.982Z,100010.47
2024-01-14T00:38:33.942Z,100016.00
2024-01-14T00:41:24.709Z,100024.53
2024-01-14T00:44:14.067Z,99990.56
2024-01-14T00:47:03.117Z,100031.75
2024-01-14T00:49:51.433Z,100016.66
2024-01-14T00:52:39.896Z,99984.69
2024-01-14T00:55:33.716Z,100012.94
2024-01-14T00:58:24.768Z,100007.66
2024-01-14T01:01:14.620Z,100004.63
2024-01-14T01:04:02.942Z,100004.97
2024-01-14T01:06:55.746Z,100014.69
2024-01-14T01:09:45.821Z,99990.44
2024-01-14T01:12:38.183Z,100006.31
2024-01-14T01:15:28.647Z,99974.44
2024-01-14T01:18:19.119Z,100009.16
2024-01-14T01:21:07.862Z,100002.97
2024-01-14T01:23:59.572Z,100002.47
2024-01-14T01:26:47.945Z,99972.84
2024-01-14T01:29:43.721Z,99988.25
2024-01-14T01:32:32.554Z,99981.56
2024-01-14T01:35:21.905Z,99986.88
2024-01-14T01:38:13.669Z,99975.84
2024-01-14T01:41:02.008Z,99992.06
2024-01-14T01:43:51.621Z,99971.63
2024-01-14T01:46:43.286Z,99999.19
2024-01-14T01:49:34.796Z,100007.28
2024-01-14T01:52:28.076Z,99992.06
2024-01-14T01:55:18.145Z,99988.00
2024-01-14T01:58:09.666Z,99987.13
2024-01-14T02:01:03.599Z,99993.59
2024-01-14T02:04:06.778Z,100018.53
2024-01-14T03:14:07.787Z,99952.09
2024-01-14T03:23:54.234Z,99943.69
2024-01-14T03:27:13.845Z,99938.34
2024-01-14T03:30:23.391Z,99957.88
2024-01-14T03:33:20.925Z,99942.66
2024-01-14T03:36:20.809Z,99932.47
2024-01-14T03:39:09.642Z,99924.53
2024-01-14T03:42:08.055Z,99913.47
2024-01-14T03:45:08.436Z,99937.28
2024-01-14T03:47:56.991Z,99933.53
2024-01-14T03:50:47.518Z,99919.16
2024-01-14T03:53:36.484Z,99915.78
2024-01-14T03:56:31.518Z,99901.88
2024-01-14T03:59:20.208Z,99863.75
2024-01-14T04:02:11.415Z,99886.69
2024-01-14T04:04:59.898Z,99880.78
2024-01-14T04:07:50.731Z,99845.97
2024-01-14T04:10:39.015Z,99862.47
2024-01-14T04:13:27.480Z,99865.16
2024-01-14T04:16:18.565Z,99862.50
2024-01-14T04:19:08.357Z,99861.34
2024-01-14T04:21:57.209Z,99856.53
2024-01-14T04:24:45.855Z,99867.56
2024-01-14T04:27:36.614Z,99885.59
2024-01-14T04:30:27.218Z,99885.56
2024-01-14T04:33:20.450Z,99875.50
2024-01-14T04:36:09.174Z,99867.94
2024-01-14T04:39:01.509Z,99860.66
2024-01-14T04:41:52.954Z,99874.53
2024-01-14T04:44:50.241Z,99869.53
2024-01-14T04:47:41.974Z,99859.25
2024-01-14T04:50:30.318Z,99853.88
2024-01-14T04:53:22.268Z,99863.16
2024-01-14T04:56:18.437Z,99860.50
2024-01-14T04:59:09.540Z,99860.72
2024-01-14T05:02:00.827Z,99855.25
2024-01-14T05:04:52.018Z,99844.97
2024-01-14T05:07:40.529Z,99833.28
2024-01-14T05:10:31.556Z,99824.25
2024-01-14T05:13:24.116Z,99843.88
2024-01-14T05:16:12.610Z,99828.66
2024-01-14T05:19:07.011Z,99824.31
2024-01-14T05:22:00.479Z,99832.16
2024-01-14T05:24:56.843Z,99827.47
2024-01-14T05:27:55.560Z,99829.00
2024-01-14T05:30:45.073Z,99806.41
2024-01-14T05:33:33.879Z,99828.66
2024-01-14T05:36:22.623Z,99819.31
2024-01-14T05:39:11.199Z,99836.72
2024-01-14T05:41:59.694Z,99838.16
2024-01-14T05:44:50.445Z,99805.44
2024-01-14T05:47:39.077Z,99827.34
2024-01-14T05:50:27.453Z,99833.94
2024-01-14T05:53:17.202Z,99819.56
2024-01-14T05:56:16.956Z,99798.81
2024-01-14T05:59:05.205Z,99801.97
2024-01-14T06:01:56.954Z,99799.66
2024-01-14T06:04:48.550Z,99821.94
2024-01-14T06:07:39.140Z,99828.50
2024-01-14T06:10:27.912Z,99832.47
2024-01-14T06:13:20.900Z,99797.84
2024-01-14T06:16:10.168Z,99824.22
2024-01-14T06:18:58.815Z,99807.41
2024-01-14T06:21:51.774Z,99808.09
2024-01-14T06:24:42.612Z,99835.47
2024-01-14T06:27:32.957Z,99811.81
2024-01-14T06:30:25.157Z,99810.13
2024-01-14T06:33:14.476Z,99792.16
2024-01-14T06:36:07.546Z,99838.94
2024-01-14T06:38:56.446Z,99830.09
2024-01-14T06:41:45.421Z,99819.47
2024-01-14T06:44:34.988Z,99812.75
2024-01-14T06:47:23.463Z,99817.97
2024-01-14T06:50:15.753Z,99816.13
2024-01-14T06:53:05.613Z,99802.06
2024-01-14T06:55:55.724Z,99811.91
2024-01-14T06:58:44.333Z,99799.59
2024-01-14T07:01:35.477Z,99780.31
2024-01-14T07:05:08.858Z,99779.28
2024-01-14T07:18:51.683Z,99789.50
2024-01-14T08:11:26.173Z,99784.16
2024-01-14T08:42:02.252Z,99748.84
2024-01-14T08:45:13.780Z,99756.69
2024-01-14T08:48:18.702Z,99740.69
2024-01-14T08:51:21.160Z,99749.34
2024-01-14T08:54:22.105Z,99729.38
2024-01-14T08:57:39.399Z,99741.13
2024-01-14T09:01:08.605Z,99757.88
2024-01-14T09:04:24.305Z,99729.44
2024-01-14T09:08:05.088Z,99710.06
2024-01-14T09:14:56.162Z,99747.03
2024-01-14T09:41:02.871Z,99761.44
2024-01-14T10:42:13.375Z,99678.06
2024-01-14T10:45:10.437Z,99661.63
2024-01-14T10:48:22.169Z,99625.47
2024-01-14T10:51:21.085Z,99648.97
2024-01-14T10:54:32.298Z,99630.66
2024-01-14T10:57:39.185Z,99647.44
2024-01-14T11:00:36.338Z,99634.19
2024-01-14T11:03:30.301Z,99601.84
2024-01-14T11:06:29.244Z,99625.72
2024-01-14T11:09:42.528Z,99585.28
2024-01-14T11:13:53.307Z,99607.84
2024-01-14T11:17:47.676Z,99574.00
2024-01-14T11:20:58.849Z,99605.13
2024-01-14T11:24:04.420Z,99579.06
2024-01-14T11:27:24.836Z,99566.50
2024-01-14T11:30:32.401Z,99583.75
2024-01-14T11:33:48.683Z,99540.56
2024-01-14T11:37:04.071Z,99557.66
2024-01-14T11:40:04.546Z,99528.88
2024-01-14T11:43:15.525Z,99542.94
2024-01-14T11:46:06.020Z,99534.31
2024-01-14T11:49:13.823Z,99552.22
2024-01-14T11:52:15.200Z,99523.44
2024-01-14T11:55:06.899Z,99500.09
2024-01-14T11:57:57.806Z,99509.09
2024-01-14T12:00:56.543Z,99495.09
2024-01-14T12:03:44.972Z,99485.75
2024-01-14T12:06:47.490Z,99494.69
2024-01-14T12:09:36.166Z,99481.47
2024-01-14T12:12:28.851Z,99474.09
2024-01-14T12:15:20.996Z,99486.53
2024-01-14T12:18:13.760Z,99474.88
2024-01-14T12:21:23.455Z,99442.94
2024-01-14T12:24:21.360Z,99439.84
2024-01-14T12:27:16.258Z,99462.03
2024-01-14T12:30:07.877Z,99450.34
2024-01-14T12:32:59.898Z,99432.84
2024-01-14T12:35:53.156Z,99421.56
2024-01-14T12:38:44.195Z,99424.28
2024-01-14T12:41:48.582Z,99414.53
2024-01-14T12:45:00.991Z,99404.06
2024-01-14T12:48:01.751Z,99375.28
2024-01-14T12:51:03.527Z,99384.22
2024-01-14T12:54:08.203Z,99372.53
2024-01-14T12:57:17.083Z,99388.13
2024-01-14T13:00:21.698Z,99395.91
2024-01-14T13:03:11.552Z,99403.66
2024-01-14T13:06:08.451Z,99397.84
2024-01-14T13:09:08.155Z,99366.34
2024-01-14T13:11:56.811Z,99376.06
2024-01-14T13:14:56.935Z,99363.59
2024-01-14T13:17:53.848Z,99343.00
2024-01-14T13:20:44.625Z,99371.34
2024-01-14T13:23:35.304Z,99343.78
2024-01-14T13:26:28.472Z,99351.88
2024-01-14T13:29:16.822Z,99342.50
2024-01-14T13:32:08.465Z,99334.41
2024-01-14T13:34:59.247Z,99328.56
2024-01-14T13:37:47.556Z,99326.94
2024-01-14T13:40:38.393Z,99316.47
2024-01-14T13:43:34.825Z,99298.28
2024-01-14T13:46:25.336Z,99328.22
2024-01-14T13:49:21.431Z,99290.50
2024-01-14T13:52:09.512Z,99287.00
2024-01-14T13:54:57.972Z,99323.19
2024-01-14T13:58:13.201Z,99320.09
2024-01-14T14:01:01.759Z,99339.13
2024-01-14T14:03:50.135Z,99307.22
2024-01-14T14:06:46.169Z,99313.06
2024-01-14T14:09:39.971Z,99291.72
2024-01-14T14:12:28.526Z,99304.53
2024-01-14T14:15:19.639Z,99319.31
2024-01-14T14:18:17.686Z,99328.63
2024-01-14T14:21:09.172Z,99311.16
2024-01-14T14:23:58.880Z,99327.88
2024-01-14T14:26:47.480Z,99321.66
2024-01-14T14:29:46.915Z,99302.59
2024-01-14T14:32:35.429Z,99325.91
2024-01-14T14:35:26.233Z,99289.78
2024-01-14T14:38:14.887Z,99308.81
2024-01-14T14:41:07.534Z,99301.84
2024-01-14T14:43:57.882Z,99302.59
2024-01-14T14:46:46.640Z,99283.56
2024-01-14T14:49:46.020Z,99301.81
2024-01-14T14:52:45.837Z,99305.72
2024-01-14T14:55:35.928Z,99284.69
2024-01-14T14:58:25.761Z,99283.16
2024-01-14T15:01:24.663Z,99287.03
2024-01-14T15:04:20.663Z,99285.50
2024-01-14T15:07:14.517Z,99284.72
2024-01-14T15:10:04.409Z,99290.94
2024-01-14T15:12:54.868Z,99278.09
2024-01-14T15:15:46.411Z,99275.78
2024-01-14T15:18:35.761Z,99269.19
2024-01-14T15:21:24.023Z,99266.47
2024-01-14T15:24:13.737Z,99264.91
2024-01-14T15:27:14.273Z,99256.34
2024-01-14T15:30:04.110Z,99248.19
2024-01-14T15:32:52.590Z,99251.31
2024-01-14T15:35:46.013Z,99241.22
2024-01-14T15:38:37.760Z,99241.59
2024-01-14T15:41:31.589Z,99222.97
2024-01-14T15:44:21.281Z,99231.84
2024-01-14T15:47:09.610Z,99230.72
2024-01-14T15:50:21.129Z,99234.19
2024-01-14T15:53:16.940Z,99241.56
2024-01-14T15:56:08.249Z,99220.63
2024-01-14T15:58:56.673Z,99221.75
2024-01-14T16:01:47.110Z,99203.91
2024-01-14T16:04:35.459Z,99214.00
2024-01-14T16:07:23.689Z,99208.59
2024-01-14T16:10:14.593Z,99182.16
2024-01-14T16:13:04.923Z,99210.13
2024-01-14T16:15:53.422Z,99191.88
2024-01-14T16:18:42.006Z,99193.06
2024-01-14T16:21:34.858Z,99171.66
2024-01-14T16:24:27.462Z,99186.06
2024-01-14T16:27:24.283Z,99177.91
2024-01-14T16:30:14.166Z,99179.06
2024-01-14T16:33:07.728Z,99179.06
2024-01-14T16:35:56.238Z,99162.38
2024-01-14T16:38:44.900Z,99186.06
2024-01-14T16:41:33.008Z,99182.16
2024-01-14T16:44:23.466Z,99180.63
2024-01-14T16:47:11.468Z,99179.84
2024-01-14T16:50:03.238Z,99174.00
2024-01-14T16:52:51.706Z,99181.41
2024-01-14T16:55:39.771Z,99161.97
2024-01-14T16:58:28.127Z,99169.75
2024-01-14T17:01:19.011Z,99165.50
2024-01-14T17:04:08.213Z,99158.88
2024-01-14T17:06:56.452Z,99160.81
2024-01-14T17:09:47.882Z,99161.22
2024-01-14T17:12:36.189Z,99155.00
2024-01-14T17:15:26.815Z,99149.53
2024-01-14T17:18:15.556Z,99161.19
2024-01-14T17:21:04.404Z,99144.50
2024-01-14T17:23:56.711Z,99130.13
2024-01-14T17:26:44.912Z,99120.44
2024-01-14T17:29:39.158Z,99118.88
2024-01-14T17:32:27.892Z,99112.31
2024-01-14T17:35:23.514Z,99122.38
2024-01-14T17:38:14.485Z,99118.88
2024-01-14T17:41:03.276Z,99130.13
2024-01-14T17:43:51.522Z,99127.41
2024-01-14T17:46:42.730Z,99107.63
2024-01-14T17:49:33.506Z,99102.22
2024-01-14T17:52:27.506Z,99099.13
2024-01-14T17:55:18.673Z,99097.53
2024-01-14T17:58:08.738Z,99098.31
2024-01-14T18:00:59.016Z,99099.47
2024-01-14T18:03:47.705Z,99098.31
2024-01-14T18:06:36.738Z,99088.97
2024-01-14T18:09:25.228Z,99099.88
2024-01-14T18:12:13.730Z,99080.44
2024-01-14T18:15:04.454Z,99092.88
2024-01-14T18:17:52.995Z,99094.03
2024-01-14T18:20:41.733Z,99102.56
2024-01-14T18:23:30.457Z,99101.03
2024-01-14T18:26:18.995Z,99099.84
2024-01-14T18:29:09.864Z,99079.28
2024-01-14T18:32:05.438Z,99078.91
2024-01-14T18:34:53.822Z,99065.31
2024-01-14T18:37:45.322Z,99089.75
2024-01-14T18:40:36.018Z,99075.41
2024-01-14T18:43:24.396Z,99057.94
2024-01-14T18:46:20.760Z,99070.38
2024-01-14T18:49:22.877Z,99078.50
2024-01-14T18:52:12.003Z,99083.16
2024-01-14T18:55:10.217Z,99074.63
2024-01-14T18:57:58.772Z,99070.38
2024-01-14T19:00:50.043Z,99064.53
2024-01-14T19:03:48.062Z,99070.34
2024-01-14T19:06:37.317Z,99050.53
2024-01-14T19:09:38.229Z,99059.88
2024-01-14T19:12:29.192Z,99057.56
2024-01-14T19:15:17.949Z,99027.69
2024-01-14T19:18:17.914Z,99043.97
2024-01-14T19:21:07.756Z,99053.28
2024-01-14T19:23:59.737Z,99018.41
2024-01-14T19:26:48.353Z,99051.34
2024-01-14T19:29:36.677Z,99037.00
2024-01-14T19:32:25.474Z,99040.88
2024-01-14T19:35:13.764Z,99029.28
2024-01-14T19:38:12.662Z,99028.50
2024-01-14T19:41:02.087Z,99030.44
2024-01-14T19:43:52.797Z,99040.13
2024-01-14T19:46:42.535Z,99028.50
2024-01-14T19:49:31.113Z,99035.09
2024-01-14T19:52:23.759Z,99028.09
2024-01-14T19:55:14.382Z,99023.81
2024-01-14T19:58:07.142Z,99033.94
2024-01-14T20:00:55.448Z,99023.44
2024-01-14T20:03:49.983Z,99027.72
2024-01-14T20:06:41.616Z,98995.91
2024-01-14T20:09:30.621Z,99014.94
2024-01-14T20:12:21.583Z,99011.44
2024-01-14T20:15:12.421Z,99008.31
2024-01-14T20:18:01.148Z,99000.97
2024-01-14T20:20:54.270Z,98999.78
2024-01-14T20:23:45.425Z,98993.19
2024-01-14T20:26:36.241Z,98993.56
2024-01-14T20:29:24.571Z,98983.13
2024-01-14T20:32:12.802Z,98992.41
2024-01-14T20:35:06.567Z,98983.13
2024-01-14T20:38:07.867Z,99015.31
2024-01-14T20:41:22.146Z,98974.22
2024-01-14T20:44:22.119Z,98992.03
2024-01-14T20:47:21.981Z,98986.97
2024-01-14T20:50:15.294Z,98980.00
2024-01-14T20:54:11.912Z,98985.44
2024-01-14T20:56:44.530Z,98992.03
2024-01-14T20:59:39.419Z,98986.22
2024-01-14T21:02:37.849Z,98967.59
2024-01-14T21:09:16.043Z,98965.66
2024-01-14T21:12:07.617Z,98966.44
2024-01-14T21:14:56.294Z,98983.91
2024-01-14T21:17:45.629Z,98978.47
2024-01-14T21:20:34.507Z,98967.22
2024-01-14T21:23:25.346Z,98962.94
2024-01-14T21:26:17.231Z,98964.09
2024-01-14T21:29:07.007Z,98967.19
2024-01-14T21:31:59.381Z,98947.44
2024-01-14T21:34:54.743Z,98922.25
2024-01-14T21:37:42.996Z,98942.03
2024-01-14T21:40:34.488Z,98936.97
2024-01-14T21:43:24.883Z,98942.78
2024-01-14T21:46:13.883Z,98947.06
2024-01-14T21:49:04.773Z,98920.72
2024-01-14T21:51:53.372Z,98935.03
2024-01-14T21:54:47.184Z,98910.63
2024-01-14T21:57:41.217Z,98923.03
2024-01-14T22:00:32.049Z,98931.16
2024-01-14T22:03:20.469Z,98909.44
2024-01-14T22:06:09.477Z,98914.50
2024-01-14T22:08:57.847Z,98918.00
2024-01-14T22:11:55.252Z,98911.41
2024-01-14T22:14:54.262Z,98909.84
2024-01-14T22:17:44.888Z,98914.50
2024-01-14T22:20:36.067Z,98893.97
2024-01-14T22:23:29.031Z,98900.53
2024-01-14T22:26:17.625Z,98917.22
2024-01-14T22:29:36.898Z,98920.31
2024-01-14T22:32:25.335Z,98912.16
2024-01-14T22:35:14.052Z,98916.44
2024-01-14T22:38:02.253Z,98921.47
2024-01-14T22:40:56.427Z,98918.75
2024-01-14T22:43:44.956Z,98935.03
2024-01-14T22:46:33.568Z,98928.84
2024-01-14T22:49:24.631Z,98933.13
2024-01-14T22:52:17.668Z,98934.25
2024-01-14T22:55:06.406Z,98930.78
2024-01-14T22:57:54.897Z,98907.91
2024-01-14T23:00:46.150Z,98914.09
2024-01-14T23:03:34.460Z,98929.22
2024-01-14T23:06:24.978Z,98909.44
2024-01-14T23:09:15.876Z,98927.66
2024-01-14T23:12:05.026Z,98909.84
2024-01-14T23:14:53.316Z,98917.19
2024-01-14T23:17:42.193Z,98929.97
2024-01-14T23:20:36.724Z,98939.66
2024-01-14T23:23:28.145Z,98942.75
2024-01-14T23:26:19.568Z,98936.16
2024-01-14T23:29:07.792Z,98928.84
2024-01-14T23:31:58.787Z,98922.22
2024-01-14T23:34:46.956Z,98919.91
2024-01-14T23:37:37.560Z,98917.19
2024-01-14T23:40:26.030Z,98925.72
2024-01-14T23:43:14.453Z,98916.03
2024-01-14T23:46:11.002Z,98891.63
2024-01-14T23:49:01.070Z,98899.34
2024-01-14T23:51:49.859Z,98908.28
2024-01-14T23:54:42.442Z,98904.03
2024-01-14T23:57:32.162Z,98900.50
